createdAt,value
2018-08-17T00:00:37.619Z,17.50
2018-08-17T00:03:06.112Z,15.83
2018-08-17T00:05:34.388Z,15.58
2018-08-17T00:08:02.696Z,15.27
2018-08-17T00:10:30.952Z,15.58
2018-08-17T00:12:59.224Z,14.87
2018-08-17T00:15:27.465Z,17.37
2018-08-17T00:17:56.499Z,17.00
2018-08-17T00:20:24.732Z,14.47
2018-08-17T00:22:53.036Z,17.98
2018-08-17T00:25:21.283Z,16.73
2018-08-17T00:27:49.541Z,14.18
2018-08-17T00:30:17.793Z,20.10
2018-08-17T00:32:46.040Z,16.82
2018-08-17T00:35:14.289Z,15.63
2018-08-17T00:37:42.556Z,16.90
2018-08-17T00:40:10.793Z,17.12
2018-08-17T00:42:39.045Z,16.83
2018-08-17T00:45:07.484Z,16.95
2018-08-17T00:47:35.721Z,17.60
2018-08-17T00:50:04.059Z,18.40
2018-08-17T00:52:32.304Z,22.10
2018-08-17T00:55:00.542Z,17.85
2018-08-17T00:57:28.797Z,19.30
2018-08-17T00:59:57.040Z,16.90
2018-08-17T01:02:25.284Z,15.35
2018-08-17T01:04:53.536Z,16.70
2018-08-17T01:07:21.780Z,18.62
2018-08-17T01:09:50.032Z,18.17
2018-08-17T01:12:18.286Z,16.85
2018-08-17T01:14:46.536Z,16.93
2018-08-17T01:17:14.765Z,20.25
2018-08-17T01:19:43.016Z,20.12
2018-08-17T01:22:11.257Z,19.95
2018-08-17T01:24:39.521Z,18.30
2018-08-17T01:27:07.780Z,18.15
2018-08-17T01:29:36.044Z,19.07
2018-08-17T01:32:04.276Z,18.85
2018-08-17T01:34:32.541Z,18.60
2018-08-17T01:37:00.765Z,17.67
2018-08-17T01:39:29.016Z,18.98
2018-08-17T01:41:57.253Z,17.45
2018-08-17T01:44:25.520Z,24.23
2018-08-17T01:46:53.790Z,19.25
2018-08-17T01:49:22.049Z,18.73
2018-08-17T01:51:50.277Z,17.98
2018-08-17T01:54:18.520Z,19.67
2018-08-17T01:56:46.764Z,20.10
2018-08-17T01:59:15.016Z,23.10
2018-08-17T02:01:43.251Z,21.05
2018-08-17T02:04:11.481Z,21.00
2018-08-17T02:06:39.700Z,18.65
2018-08-17T02:09:10.719Z,23.38
2018-08-17T02:11:38.972Z,19.10
2018-08-17T02:14:07.266Z,19.32
2018-08-17T02:16:35.483Z,22.40
2018-08-17T02:19:03.733Z,23.27
2018-08-17T02:21:31.936Z,21.33
2018-08-17T02:24:00.205Z,20.27
2018-08-17T02:26:28.440Z,22.27
2018-08-17T02:28:56.667Z,23.12
2018-08-17T02:31:24.883Z,23.07
2018-08-17T02:33:53.132Z,22.65
2018-08-17T02:36:21.393Z,23.00
2018-08-17T02:38:49.708Z,22.93
2018-08-17T02:41:17.949Z,23.45
2018-08-17T02:43:46.197Z,23.77
2018-08-17T02:46:14.507Z,24.98
2018-08-17T02:48:43.048Z,23.98
2018-08-17T02:51:11.373Z,25.72
2018-08-17T02:53:39.613Z,22.93
2018-08-17T02:56:07.913Z,25.57
2018-08-17T02:58:36.136Z,22.80
2018-08-17T03:01:04.376Z,22.85
2018-08-17T03:03:32.612Z,22.30
2018-08-17T03:06:00.844Z,23.80
2018-08-17T03:08:29.084Z,25.88
2018-08-17T03:10:57.316Z,19.60
2018-08-17T03:13:25.576Z,25.77
2018-08-17T03:15:53.818Z,20.52
2018-08-17T03:18:22.045Z,18.42
2018-08-17T03:20:50.351Z,22.00
2018-08-17T03:23:18.587Z,27.77
2018-08-17T03:25:46.825Z,25.37
2018-08-17T03:28:15.057Z,22.10
2018-08-17T03:30:43.300Z,20.97
2018-08-17T03:33:11.524Z,18.85
2018-08-17T03:35:39.774Z,17.17
2018-08-17T03:38:08.044Z,16.62
2018-08-17T03:40:36.255Z,18.42
2018-08-17T03:43:04.486Z,19.00
2018-08-17T03:45:32.716Z,18.33
2018-08-17T03:48:00.935Z,18.67
2018-08-17T03:50:29.202Z,22.55
2018-08-17T03:52:57.408Z,21.40
2018-08-17T03:55:25.648Z,23.12
2018-08-17T03:57:53.872Z,20.47
2018-08-17T04:00:22.115Z,22.98
2018-08-17T04:02:50.340Z,19.93
2018-08-17T04:05:18.577Z,23.40
2018-08-17T04:07:46.800Z,21.67
2018-08-17T04:10:15.236Z,22.17
2018-08-17T04:12:43.452Z,19.30
2018-08-17T04:15:11.686Z,24.60
2018-08-17T04:17:40.188Z,23.63
2018-08-17T04:20:08.689Z,30.15
2018-08-17T04:22:36.900Z,23.02
2018-08-17T04:25:05.219Z,26.75
2018-08-17T04:27:33.427Z,29.70
2018-08-17T04:30:01.691Z,28.57
2018-08-17T04:32:29.916Z,35.88
2018-08-17T04:34:58.193Z,32.95
2018-08-17T04:37:26.409Z,31.97
2018-08-17T04:39:54.652Z,35.73
2018-08-17T04:42:22.882Z,36.53
2018-08-17T04:44:51.112Z,36.87
2018-08-17T04:47:19.343Z,39.20
2018-08-17T04:49:47.584Z,38.43
2018-08-17T04:52:15.856Z,38.27
2018-08-17T04:54:44.092Z,36.00
2018-08-17T04:57:12.324Z,35.37
2018-08-17T04:59:40.767Z,39.23
2018-08-17T05:02:09.045Z,40.17
2018-08-17T05:04:37.294Z,39.10
2018-08-17T05:07:06.640Z,34.45
2018-08-17T05:09:34.875Z,38.90
2018-08-17T05:12:03.121Z,35.80
2018-08-17T05:14:31.381Z,37.38
2018-08-17T05:16:59.628Z,40.23
2018-08-17T05:19:27.860Z,43.13
2018-08-17T05:21:56.172Z,37.90
2018-08-17T05:24:24.397Z,42.48
2018-08-17T05:26:52.732Z,40.80
2018-08-17T05:29:21.007Z,43.37
2018-08-17T05:31:49.256Z,40.52
2018-08-17T05:34:17.489Z,37.53
2018-08-17T05:36:45.845Z,44.93
2018-08-17T05:39:14.068Z,39.00
2018-08-17T05:41:42.318Z,38.98
2018-08-17T05:44:10.540Z,40.80
2018-08-17T05:46:38.775Z,45.40
2018-08-17T05:49:07.040Z,44.47
2018-08-17T05:51:35.289Z,41.00
2018-08-17T05:54:03.528Z,38.05
2018-08-17T05:56:31.774Z,42.60
2018-08-17T05:58:59.993Z,42.23
2018-08-17T06:01:28.251Z,37.70
2018-08-17T06:03:56.506Z,36.03
2018-08-17T06:06:24.763Z,38.53
2018-08-17T06:08:53.033Z,38.60
2018-08-17T06:11:21.484Z,36.47
2018-08-17T06:13:49.535Z,36.50
2018-08-17T06:16:17.764Z,34.10
2018-08-17T06:18:45.987Z,31.80
2018-08-17T06:21:14.238Z,36.30
2018-08-17T06:23:42.581Z,36.80
2018-08-17T06:26:10.831Z,34.17
2018-08-17T06:28:39.070Z,34.17
2018-08-17T06:31:07.330Z,36.40
2018-08-17T06:33:35.553Z,31.93
2018-08-17T06:36:03.830Z,31.45
2018-08-17T06:38:32.097Z,29.10
2018-08-17T06:41:00.296Z,32.88
2018-08-17T06:43:28.532Z,32.80
2018-08-17T06:45:56.769Z,26.60
2018-08-17T06:48:25.004Z,24.63
2018-08-17T06:50:53.297Z,20.48
2018-08-17T06:53:21.535Z,18.60
2018-08-17T06:55:49.747Z,16.10
2018-08-17T06:58:18.060Z,18.45
2018-08-17T07:00:46.297Z,15.63
2018-08-17T07:03:14.540Z,15.97
2018-08-17T07:05:42.756Z,19.50
2018-08-17T07:08:10.985Z,12.73
2018-08-17T07:10:39.216Z,13.45
2018-08-17T07:13:07.458Z,12.15
2018-08-17T07:15:35.693Z,13.93
2018-08-17T07:18:03.928Z,11.43
2018-08-17T07:20:32.156Z,13.38
2018-08-17T07:23:00.382Z,12.73
2018-08-17T07:25:28.601Z,13.35
2018-08-17T07:27:56.909Z,10.00
2018-08-17T07:30:25.045Z,10.88
2018-08-17T07:32:53.281Z,11.22
2018-08-17T07:35:21.504Z,17.23
2018-08-17T07:37:49.743Z,13.05
2018-08-17T07:40:17.961Z,10.95
2018-08-17T07:42:46.204Z,15.15
2018-08-17T07:45:14.408Z,14.07
2018-08-17T07:47:42.661Z,10.13
2018-08-17T07:50:15.173Z,12.10
2018-08-17T07:52:43.425Z,11.63
2018-08-17T07:55:11.633Z,14.80
2018-08-17T07:57:39.888Z,14.75
2018-08-17T08:00:08.188Z,12.00
2018-08-17T08:02:37.307Z,10.68
2018-08-17T08:05:06.187Z,9.85
2018-08-17T08:07:34.432Z,14.40
2018-08-17T08:10:02.682Z,10.40
2018-08-17T08:12:30.893Z,7.80
2018-08-17T08:14:59.124Z,11.07
2018-08-17T08:17:27.348Z,12.05
2018-08-17T08:20:07.088Z,12.15
2018-08-17T08:22:35.339Z,9.50
2018-08-17T08:25:03.581Z,10.13
2018-08-17T08:27:31.837Z,10.18
2018-08-17T08:30:00.040Z,8.08
2018-08-17T08:32:28.301Z,11.08
2018-08-17T08:34:56.500Z,9.75
2018-08-17T08:37:24.752Z,13.58
2018-08-17T08:39:53.007Z,11.68
2018-08-17T08:42:21.177Z,12.70
2018-08-17T08:44:49.400Z,10.10
2018-08-17T08:47:17.612Z,9.88
2018-08-17T08:49:45.936Z,10.72
2018-08-17T08:52:14.173Z,11.00
2018-08-17T08:54:42.680Z,12.23
2018-08-17T08:57:10.885Z,10.20
2018-08-17T08:59:39.111Z,9.73
2018-08-17T09:02:07.337Z,8.73
2018-08-17T09:04:35.548Z,8.20
2018-08-17T09:07:03.760Z,10.43
2018-08-17T09:09:31.983Z,8.73
2018-08-17T09:12:00.188Z,8.88
2018-08-17T09:14:28.564Z,8.75
2018-08-17T09:16:56.773Z,6.87
2018-08-17T09:19:25.016Z,7.62
2018-08-17T09:21:53.267Z,7.33
2018-08-17T09:24:21.520Z,9.10
2018-08-17T09:26:49.783Z,7.15
2018-08-17T09:29:18.057Z,8.03
2018-08-17T09:31:46.269Z,7.87
2018-08-17T09:34:14.511Z,6.72
2018-08-17T09:36:42.720Z,6.95
2018-08-17T09:39:10.981Z,6.45
2018-08-17T09:41:39.491Z,9.90
2018-08-17T09:44:08.164Z,13.17
2018-08-17T09:46:37.333Z,10.78
2018-08-17T09:49:05.692Z,6.22
2018-08-17T09:51:36.443Z,8.18
2018-08-17T09:54:06.468Z,8.10
2018-08-17T09:56:34.684Z,10.35
2018-08-17T09:59:02.961Z,8.10
2018-08-17T10:01:36.560Z,8.63
2018-08-17T10:04:10.198Z,9.13
2018-08-17T10:06:43.639Z,9.75
2018-08-17T10:09:19.840Z,13.08
2018-08-17T10:11:50.079Z,12.20
2018-08-17T10:14:18.690Z,10.20
2018-08-17T10:16:47.264Z,14.75
2018-08-17T10:19:15.492Z,9.53
2018-08-17T10:21:49.298Z,8.83
2018-08-17T10:24:17.345Z,12.07
2018-08-17T10:26:46.644Z,13.78
2018-08-17T10:29:14.925Z,14.58
2018-08-17T10:31:43.190Z,16.45
2018-08-17T10:34:11.632Z,21.10
2018-08-17T10:36:39.864Z,23.20
2018-08-17T10:39:09.003Z,17.12
2018-08-17T10:41:37.280Z,21.00
2018-08-17T10:44:05.533Z,26.30
2018-08-17T10:46:34.040Z,19.92
2018-08-17T10:49:02.376Z,17.17
2018-08-17T10:51:30.539Z,20.17
2018-08-17T10:53:58.755Z,19.32
2018-08-17T10:56:26.993Z,17.60
2018-08-17T10:58:55.312Z,19.30
2018-08-17T11:01:23.552Z,16.75
2018-08-17T11:03:51.841Z,40.38
2018-08-17T11:06:20.130Z,17.20
2018-08-17T11:08:48.353Z,24.90
2018-08-17T11:11:16.680Z,12.27
2018-08-17T11:13:45.485Z,10.75
2018-08-17T11:16:13.804Z,14.00
2018-08-17T11:18:42.028Z,16.80
2018-08-17T11:21:10.288Z,20.08
2018-08-17T11:23:38.525Z,19.50
2018-08-17T11:26:06.825Z,13.08
2018-08-17T11:28:35.040Z,18.30
2018-08-17T11:31:03.365Z,19.50
2018-08-17T11:33:31.596Z,18.40
2018-08-17T11:35:59.831Z,18.02
2018-08-17T11:38:28.237Z,16.70
2018-08-17T11:40:56.503Z,15.68
2018-08-17T11:43:24.723Z,20.32
2018-08-17T11:45:52.964Z,16.70
2018-08-17T11:48:27.865Z,15.37
2018-08-17T11:50:56.960Z,14.13
2018-08-17T11:53:26.410Z,19.17
2018-08-17T11:55:54.673Z,13.45
2018-08-17T11:58:22.880Z,16.07
2018-08-17T12:00:51.116Z,22.77
2018-08-17T12:03:19.320Z,12.97
2018-08-17T12:05:47.608Z,12.20
2018-08-17T12:08:15.970Z,13.30
2018-08-17T12:10:47.772Z,13.83
2018-08-17T12:13:17.717Z,13.22
2018-08-17T12:15:51.347Z,12.25
2018-08-17T12:18:19.562Z,13.22
2018-08-17T12:20:47.832Z,9.43
2018-08-17T12:23:16.036Z,12.90
2018-08-17T12:25:54.153Z,6.47
2018-08-17T12:28:22.617Z,8.23
2018-08-17T12:30:50.900Z,11.08
2018-08-17T12:33:19.120Z,9.95
2018-08-17T12:35:47.367Z,9.43
2018-08-17T12:38:16.717Z,8.35
2018-08-17T12:40:46.922Z,11.30
2018-08-17T12:43:17.508Z,10.90
2018-08-17T12:45:46.207Z,7.83
2018-08-17T12:48:15.540Z,8.35
2018-08-17T12:50:44.364Z,9.00
2018-08-17T12:53:12.950Z,6.40
2018-08-17T12:55:41.277Z,6.75
2018-08-17T12:58:09.558Z,6.58
2018-08-17T13:00:38.061Z,6.03
2018-08-17T13:03:06.397Z,5.37
2018-08-17T13:05:35.676Z,6.67
2018-08-17T13:08:03.951Z,6.20
2018-08-17T13:10:32.188Z,7.00
2018-08-17T13:13:05.792Z,7.90
2018-08-17T13:15:34.312Z,8.83
2018-08-17T13:18:05.064Z,8.65
2018-08-17T13:20:33.297Z,5.17
2018-08-17T13:23:01.591Z,5.00
2018-08-17T13:25:29.792Z,9.65
2018-08-17T13:27:58.028Z,9.97
2018-08-17T13:30:26.236Z,4.90
2018-08-17T13:32:54.472Z,6.00
2018-08-17T13:35:22.695Z,5.28
2018-08-17T13:37:50.958Z,5.20
2018-08-17T13:40:19.768Z,6.75
2018-08-17T13:42:48.008Z,4.37
2018-08-17T13:45:16.392Z,3.90
2018-08-17T13:47:44.729Z,5.00
2018-08-17T13:50:13.064Z,5.03
2018-08-17T13:52:41.413Z,5.20
2018-08-17T13:55:09.720Z,7.00
2018-08-17T13:57:38.040Z,5.42
2018-08-17T14:00:07.177Z,6.70
2018-08-17T14:02:35.584Z,8.55
2018-08-17T14:05:03.864Z,3.10
2018-08-17T14:07:32.104Z,3.10
2018-08-17T14:10:00.423Z,4.97
2018-08-17T14:12:28.623Z,5.70
2018-08-17T14:14:56.812Z,3.50
2018-08-17T14:17:25.040Z,6.33
2018-08-17T14:19:53.227Z,9.20
2018-08-17T14:22:21.552Z,2.50
2018-08-17T14:24:49.769Z,9.00
2018-08-17T14:27:18.820Z,8.18
2018-08-17T14:29:47.108Z,2.72
2018-08-17T14:32:15.340Z,5.93
2018-08-17T14:34:43.564Z,2.75
2018-08-17T14:37:11.824Z,9.30
2018-08-17T14:39:40.024Z,7.45
2018-08-17T14:42:08.256Z,3.70
2018-08-17T14:44:36.524Z,5.53
2018-08-17T14:47:04.760Z,2.30
2018-08-17T14:49:33.013Z,8.03
2018-08-17T14:52:01.254Z,3.33
2018-08-17T14:54:29.472Z,2.07
2018-08-17T14:56:57.785Z,2.20
2018-08-17T14:59:26.020Z,2.50
2018-08-17T15:01:54.285Z,2.60
2018-08-17T15:04:22.508Z,3.37
2018-08-17T15:06:50.740Z,3.10
2018-08-17T15:09:18.948Z,5.57
2018-08-17T15:11:47.245Z,3.90
2018-08-17T15:14:15.445Z,5.10
2018-08-17T15:16:44.053Z,6.28
2018-08-17T15:19:12.388Z,7.37
2018-08-17T15:21:41.132Z,5.60
2018-08-17T15:24:10.020Z,7.12
2018-08-17T15:26:38.332Z,7.17
2018-08-17T15:29:06.504Z,9.40
2018-08-17T15:31:34.736Z,9.53
2018-08-17T15:34:03.040Z,11.80
2018-08-17T15:36:31.253Z,8.40
2018-08-17T15:38:59.580Z,7.30
2018-08-17T15:41:27.862Z,6.50
2018-08-17T15:43:56.699Z,7.50
2018-08-17T15:46:24.984Z,10.15
2018-08-17T15:48:55.236Z,10.13
2018-08-17T15:51:23.504Z,8.40
2018-08-17T15:53:51.998Z,8.40
2018-08-17T15:56:20.211Z,7.72
2018-08-17T15:58:48.499Z,11.17
2018-08-17T16:01:16.739Z,7.87
2018-08-17T16:03:44.971Z,7.60
2018-08-17T16:06:13.186Z,8.55
2018-08-17T16:08:41.436Z,10.03
2018-08-17T16:11:10.100Z,10.23
2018-08-17T16:13:38.395Z,10.50
2018-08-17T16:16:06.721Z,12.90
2018-08-17T16:18:35.336Z,7.00
2018-08-17T16:21:03.584Z,10.05
2018-08-17T16:23:32.219Z,6.67
2018-08-17T16:26:00.468Z,6.95
2018-08-17T16:28:28.691Z,6.80
2018-08-17T16:30:56.883Z,7.83
2018-08-17T16:33:25.123Z,7.27
2018-08-17T16:35:53.328Z,6.10
2018-08-17T16:38:21.543Z,6.40
2018-08-17T16:40:51.568Z,5.90
2018-08-17T16:43:26.068Z,5.90
2018-08-17T16:45:54.340Z,9.43
2018-08-17T16:48:23.480Z,7.70
2018-08-17T16:50:51.839Z,5.87
2018-08-17T16:53:20.145Z,6.30
2018-08-17T16:55:48.387Z,6.17
2018-08-17T16:58:16.634Z,8.80
2018-08-17T17:00:44.968Z,6.60
2018-08-17T17:03:13.976Z,8.10
2018-08-17T17:05:42.204Z,6.43
2018-08-17T17:08:12.793Z,6.67
2018-08-17T17:10:42.436Z,8.20
2018-08-17T17:13:13.311Z,3.90
2018-08-17T17:15:43.210Z,5.92
2018-08-17T17:18:13.409Z,7.33
2018-08-17T17:20:41.982Z,7.72
2018-08-17T17:23:11.837Z,4.60
2018-08-17T17:25:40.440Z,7.37
2018-08-17T17:28:09.328Z,8.70
2018-08-17T17:30:44.045Z,5.03
2018-08-17T17:33:12.653Z,7.47
2018-08-17T17:35:42.020Z,6.77
2018-08-17T17:38:10.781Z,7.05
2018-08-17T17:40:40.110Z,8.00
2018-08-17T17:43:08.574Z,7.87
2018-08-17T17:45:37.495Z,9.18
2018-08-17T17:48:05.794Z,9.83
2018-08-17T17:50:34.129Z,5.72
2018-08-17T17:53:03.320Z,5.07
2018-08-17T17:55:43.827Z,7.80
2018-08-17T17:58:12.442Z,8.35
2018-08-17T18:00:40.795Z,5.60
2018-08-17T18:03:09.359Z,6.23
2018-08-17T18:05:37.776Z,7.50
2018-08-17T18:08:24.850Z,7.50
2018-08-17T18:10:53.276Z,10.07
2018-08-17T18:13:21.702Z,8.40
2018-08-17T18:15:50.007Z,8.27
2018-08-17T18:18:18.287Z,6.70
2018-08-17T18:20:46.556Z,5.17
2018-08-17T18:23:14.900Z,9.35
2018-08-17T18:25:43.354Z,9.25
2018-08-17T18:28:11.714Z,7.85
2018-08-17T18:30:40.194Z,13.40
2018-08-17T18:33:08.512Z,7.47
2018-08-17T18:35:36.740Z,5.83
2018-08-17T18:38:05.093Z,7.45
2018-08-17T18:40:33.380Z,6.43
2018-08-17T18:43:01.679Z,8.77
2018-08-17T18:45:30.004Z,9.10
2018-08-17T18:47:59.663Z,4.80
2018-08-17T18:50:28.095Z,6.15
2018-08-17T18:52:56.392Z,6.57
2018-08-17T18:55:24.694Z,8.63
2018-08-17T18:57:52.993Z,8.93
2018-08-17T19:00:21.272Z,8.23
2018-08-17T19:02:49.507Z,7.83
2018-08-17T19:05:17.761Z,11.27
2018-08-17T19:07:45.996Z,7.53
2018-08-17T19:10:14.279Z,7.72
2018-08-17T19:12:42.503Z,8.08
2018-08-17T19:15:12.229Z,9.50
2018-08-17T19:17:40.693Z,7.03
2018-08-17T19:20:12.986Z,7.15
2018-08-17T19:22:43.176Z,5.90
2018-08-17T19:25:12.687Z,7.08
2018-08-17T19:27:41.656Z,7.70
2018-08-17T19:30:23.500Z,9.13
2018-08-17T19:32:52.979Z,4.80
2018-08-17T19:35:21.232Z,8.90
2018-08-17T19:37:50.222Z,6.70
2018-08-17T19:40:18.572Z,6.22
2018-08-17T19:42:47.212Z,7.65
2018-08-17T19:45:16.140Z,8.47
2018-08-17T19:47:44.372Z,8.55
2018-08-17T19:50:12.746Z,5.93
2018-08-17T19:52:41.613Z,8.87
2018-08-17T19:55:09.900Z,5.00
2018-08-17T19:57:38.133Z,6.87
2018-08-17T20:00:08.921Z,7.60
2018-08-17T20:02:37.161Z,11.18
2018-08-17T20:05:05.427Z,6.55
2018-08-17T20:07:33.646Z,8.10
2018-08-17T20:10:01.870Z,6.92
2018-08-17T20:12:30.124Z,9.53
2018-08-17T20:14:58.360Z,7.53
2018-08-17T20:17:26.564Z,6.20
2018-08-17T20:19:54.808Z,9.25
2018-08-17T20:22:24.028Z,10.10
2018-08-17T20:24:52.284Z,9.50
2018-08-17T20:27:20.961Z,10.60
2018-08-17T20:29:49.291Z,10.17
2018-08-17T20:32:17.516Z,8.03
2018-08-17T20:34:47.444Z,7.87
2018-08-17T20:37:16.537Z,8.70
2018-08-17T20:39:45.728Z,10.83
2018-08-17T20:42:13.963Z,11.30
2018-08-17T20:44:42.168Z,8.55
2018-08-17T20:47:11.291Z,16.10
2018-08-17T20:49:39.628Z,7.30
2018-08-17T20:52:07.923Z,8.45
2018-08-17T20:54:36.140Z,8.00
2018-08-17T20:57:04.388Z,11.63
2018-08-17T20:59:33.644Z,10.46
2018-08-17T21:02:01.884Z,11.85
2018-08-17T21:04:30.104Z,14.73
2018-08-17T21:06:58.355Z,8.30
2018-08-17T21:09:26.572Z,10.10
2018-08-17T21:11:54.811Z,11.30
2018-08-17T21:14:23.048Z,13.23
2018-08-17T21:16:51.317Z,14.25
2018-08-17T21:19:27.239Z,9.27
2018-08-17T21:21:55.504Z,12.77
2018-08-17T21:24:23.708Z,12.17
2018-08-17T21:26:51.944Z,10.50
2018-08-17T21:29:20.292Z,12.47
2018-08-17T21:31:48.474Z,8.37
2018-08-17T21:34:16.683Z,11.00
2018-08-17T21:36:44.952Z,11.38
2018-08-17T21:39:15.304Z,15.36
2018-08-17T21:41:44.892Z,11.55
2018-08-17T21:44:15.532Z,10.23
2018-08-17T21:47:05.409Z,6.95
2018-08-17T21:49:34.608Z,9.30
2018-08-17T21:52:05.460Z,9.13
2018-08-17T21:54:34.436Z,12.18
2018-08-17T21:57:03.551Z,11.83
2018-08-17T21:59:37.013Z,8.77
2018-08-17T22:02:07.396Z,13.55
2018-08-17T22:04:35.926Z,12.34
2018-08-17T22:07:08.951Z,11.10
2018-08-17T22:09:41.421Z,6.92
2018-08-17T22:12:10.919Z,14.40
2018-08-17T22:14:39.991Z,6.85
2018-08-17T22:17:18.159Z,7.40
2018-08-17T22:19:46.384Z,9.17
2018-08-17T22:22:14.599Z,8.43
2018-08-17T22:24:48.044Z,8.83
2018-08-17T22:27:17.380Z,11.75
2018-08-17T22:29:47.215Z,7.97
2018-08-17T22:32:15.468Z,9.73
2018-08-17T22:34:43.700Z,8.28
2018-08-17T22:37:11.968Z,10.03
2018-08-17T22:39:40.175Z,9.48
2018-08-17T22:42:08.528Z,18.42
2018-08-17T22:44:36.696Z,13.53
2018-08-17T22:47:16.001Z,16.23
2018-08-17T22:49:44.544Z,7.70
2018-08-17T22:52:12.823Z,12.13
2018-08-17T22:54:46.412Z,10.15
2018-08-17T22:57:15.013Z,10.00
2018-08-17T22:59:43.219Z,6.50
2018-08-17T23:02:11.540Z,11.50
2018-08-17T23:04:39.797Z,8.80
2018-08-17T23:07:08.027Z,11.53
2018-08-17T23:09:36.232Z,10.95
2018-08-17T23:12:04.468Z,8.18
2018-08-17T23:14:32.680Z,11.43
2018-08-17T23:17:00.908Z,12.50
2018-08-17T23:19:29.113Z,11.33
2018-08-17T23:21:57.344Z,12.98
2018-08-17T23:24:25.561Z,12.45
2018-08-17T23:26:53.796Z,10.08
2018-08-17T23:29:21.992Z,9.28
2018-08-17T23:31:50.220Z,10.58
2018-08-17T23:34:18.426Z,13.95
2018-08-17T23:36:46.643Z,12.95
2018-08-17T23:39:14.857Z,9.60
2018-08-17T23:41:43.075Z,9.80
2018-08-17T23:44:11.284Z,10.32
2018-08-17T23:46:39.495Z,9.30
2018-08-17T23:49:07.736Z,12.65
2018-08-17T23:51:35.956Z,10.67
2018-08-17T23:54:04.208Z,13.15
2018-08-17T23:56:32.410Z,13.43
2018-08-17T23:59:00.635Z,11.18
